Time;durP1;ratioP1;P1;durP2;ratioP2;P2;SDS_P1;SDS_P2;PMS_P1;PMS_P2;Temp;Humidity;BMP_temperature;BMP_pressure;BME280_temperature;BME280_humidity;BME280_pressure;Samples;Min_cycle;Max_cycle;Signal;HPM_P1;HPM_P2
2022/07/09 00:01:23;;;;;;;;;;;16.00;99.90;;;;;;5056488;28;19909;-66
2022/07/09 00:03:49;;;;;;;;;;;15.90;99.90;;;;;;5056403;28;19909;-66
2022/07/09 00:06:14;;;;;;;;;;;15.80;99.90;;;;;;5056387;28;20346;-66
2022/07/09 00:08:40;;;;;;;;;;;15.80;99.90;;;;;;5056168;28;19964;-67
2022/07/09 00:11:05;;;;;;;;;;;15.70;99.90;;;;;;5056243;28;19909;-66
2022/07/09 00:13:31;;;;;;;;;;;15.60;99.90;;;;;;5056474;28;19916;-66
2022/07/09 00:15:56;;;;;;;;;;;15.60;99.90;;;;;;5056170;28;20403;-67
2022/07/09 00:18:22;;;;;;;;;;;15.60;99.90;;;;;;5056150;28;19958;-66
2022/07/09 00:20:47;;;;;;;;;;;15.60;99.90;;;;;;5056087;28;20050;-66
2022/07/09 00:23:13;;;;;;;;;;;15.60;99.90;;;;;;5056044;28;19916;-67
2022/07/09 00:25:38;;;;;;;;;;;15.50;99.90;;;;;;5056242;28;19916;-66
2022/07/09 00:28:04;;;;;;;;;;;15.50;99.90;;;;;;5055892;28;19916;-67
2022/07/09 00:30:29;;;;;;;;;;;15.60;99.90;;;;;;5038119;28;19908;-67
2022/07/09 00:32:55;;;;;;;;;;;15.60;99.90;;;;;;5055852;28;19909;-66
2022/07/09 00:35:20;;;;;;;;;;;15.60;99.90;;;;;;5056070;28;19916;-67
2022/07/09 00:37:46;;;;;;;;;;;15.60;99.90;;;;;;5056041;28;19909;-67
2022/07/09 00:40:11;;;;;;;;;;;15.60;99.90;;;;;;5055709;28;19908;-66
2022/07/09 00:42:37;;;;;;;;;;;15.60;99.90;;;;;;5055654;28;19919;-66
2022/07/09 00:45:02;;;;;;;;;;;15.60;99.90;;;;;;5055640;28;20391;-66
2022/07/09 00:47:28;;;;;;;;;;;15.60;99.90;;;;;;5037856;28;19909;-66
2022/07/09 00:49:54;;;;;;;;;;;15.60;99.90;;;;;;5055298;28;19927;-67
2022/07/09 00:52:19;;;;;;;;;;;15.60;99.90;;;;;;5055524;28;19923;-67
2022/07/09 00:54:45;;;;;;;;;;;15.60;99.90;;;;;;5055459;28;20339;-66
2022/07/09 00:57:11;;;;;;;;;;;15.60;99.90;;;;;;5055394;28;19965;-66
2022/07/09 00:59:37;;;;;;;;;;;15.60;99.90;;;;;;5055628;28;20007;-66
2022/07/09 01:02:03;;;;;;;;;;;15.60;99.90;;;;;;5055634;28;20010;-66
2022/07/09 01:04:29;;;;;;;;;;;15.60;99.90;;;;;;5055576;28;19913;-66
2022/07/09 01:06:54;;;;;;;;;;;15.60;99.90;;;;;;5055500;28;19959;-67
2022/07/09 01:09:21;;;;;;;;;;;15.50;99.90;;;;;;5055062;28;19913;-66
2022/07/09 01:11:47;;;;;;;;;;;15.50;99.90;;;;;;5055418;28;19913;-67
2022/07/09 01:14:12;;;;;;;;;;;15.50;99.90;;;;;;5055362;28;19932;-66
2022/07/09 01:16:38;;;;;;;;;;;15.50;99.90;;;;;;5055288;28;20359;-67
2022/07/09 01:19:04;;;;;;;;;;;15.50;99.90;;;;;;5055017;28;19908;-66
2022/07/09 01:21:30;;;;;;;;;;;15.50;99.90;;;;;;5055222;28;19909;-66
2022/07/09 01:23:56;;;;;;;;;;;15.50;99.90;;;;;;5054890;28;19909;-67
2022/07/09 01:26:23;;;;;;;;;;;15.50;99.90;;;;;;5054888;28;19909;-67
2022/07/09 01:28:48;;;;;;;;;;;15.50;99.90;;;;;;5054732;28;19920;-67
2022/07/09 01:31:14;;;;;;;;;;;15.50;99.90;;;;;;5055044;28;19909;-66
2022/07/09 01:33:40;;;;;;;;;;;15.50;99.90;;;;;;5054710;28;20011;-66
2022/07/09 01:36:06;;;;;;;;;;;15.50;99.90;;;;;;5054910;28;19912;-67
2022/07/09 01:38:31;;;;;;;;;;;15.50;99.90;;;;;;5054849;28;20367;-67
2022/07/09 01:40:57;;;;;;;;;;;15.50;99.90;;;;;;5054803;28;19909;-66
2022/07/09 01:43:22;;;;;;;;;;;15.40;99.90;;;;;;5054793;28;20264;-66
2022/07/09 01:45:48;;;;;;;;;;;15.50;99.90;;;;;;5054765;28;19913;-66
2022/07/09 01:48:13;;;;;;;;;;;15.40;99.90;;;;;;5054163;28;20394;-66
2022/07/09 01:50:39;;;;;;;;;;;15.40;99.90;;;;;;5054377;28;19908;-66
2022/07/09 01:53:04;;;;;;;;;;;15.40;99.90;;;;;;5054335;28;19909;-66
2022/07/09 01:55:30;;;;;;;;;;;15.50;99.90;;;;;;5054580;28;19948;-66
2022/07/09 01:57:55;;;;;;;;;;;15.40;99.90;;;;;;5054252;28;19909;-66
2022/07/09 02:00:21;;;;;;;;;;;15.40;99.90;;;;;;5054178;28;20427;-66
2022/07/09 02:02:47;;;;;;;;;;;15.40;99.90;;;;;;5054409;28;19912;-66
2022/07/09 02:05:12;;;;;;;;;;;15.30;99.90;;;;;;5054389;28;19909;-67
2022/07/09 02:07:38;;;;;;;;;;;15.30;99.90;;;;;;5054329;28;19909;-67
2022/07/09 02:10:04;;;;;;;;;;;15.30;99.90;;;;;;5054249;28;19913;-67
2022/07/09 02:12:29;;;;;;;;;;;15.30;99.90;;;;;;5054273;28;20325;-67
2022/07/09 02:14:55;;;;;;;;;;;15.30;99.90;;;;;;5054224;28;19913;-66
2022/07/09 02:17:20;;;;;;;;;;;15.40;99.90;;;;;;5053924;28;19958;-66
2022/07/09 02:19:46;;;;;;;;;;;15.50;99.90;;;;;;5053774;28;19916;-67
2022/07/09 02:22:11;;;;;;;;;;;15.50;99.90;;;;;;5054090;28;19913;-66
2022/07/09 02:24:37;;;;;;;;;;;15.50;99.90;;;;;;5054106;28;20271;-66
2022/07/09 02:27:02;;;;;;;;;;;15.50;99.90;;;;;;5054056;28;19916;-66
2022/07/09 02:29:28;;;;;;;;;;;15.50;99.90;;;;;;5053584;28;19919;-66
2022/07/09 02:31:55;;;;;;;;;;;15.60;99.90;;;;;;5053958;28;19961;-67
2022/07/09 02:34:21;;;;;;;;;;;15.60;99.90;;;;;;5053919;28;19991;-66
2022/07/09 02:36:46;;;;;;;;;;;15.60;99.90;;;;;;5053666;28;19963;-66
2022/07/09 02:39:12;;;;;;;;;;;15.60;99.90;;;;;;5053900;28;19913;-66
2022/07/09 02:41:37;;;;;;;;;;;15.60;99.90;;;;;;5053818;28;19934;-66
2022/07/09 02:44:03;;;;;;;;;;;15.60;99.90;;;;;;5053584;28;20393;-66
2022/07/09 02:46:28;;;;;;;;;;;15.60;99.90;;;;;;5053510;28;19909;-67
2022/07/09 02:48:53;;;;;;;;;;;15.60;99.90;;;;;;5053393;28;19928;-67
2022/07/09 02:51:19;;;;;;;;;;;15.60;99.90;;;;;;5053451;28;20429;-66
2022/07/09 02:53:45;;;;;;;;;;;15.50;99.90;;;;;;5053732;28;19955;-66
2022/07/09 02:56:11;;;;;;;;;;;15.50;99.90;;;;;;5053476;28;19909;-67
2022/07/09 02:58:36;;;;;;;;;;;15.50;99.90;;;;;;5053672;28;20133;-66
2022/07/09 03:01:05;;;;;;;;;;;15.50;99.90;;;;;;5053406;28;19913;-66
2022/07/09 03:03:31;;;;;;;;;;;15.50;99.90;;;;;;5035526;28;19912;-66
2022/07/09 03:05:56;;;;;;;;;;;15.60;99.90;;;;;;5053620;28;20009;-66
2022/07/09 03:08:22;;;;;;;;;;;15.70;99.90;;;;;;5053281;28;20356;-67
2022/07/09 03:10:49;;;;;;;;;;;15.80;99.90;;;;;;5053282;28;19913;-66
2022/07/09 03:13:15;;;;;;;;;;;15.80;99.90;;;;;;5035503;28;20390;-67
2022/07/09 03:15:40;;;;;;;;;;;15.80;99.90;;;;;;5053468;28;19909;-66
2022/07/09 03:18:08;;;;;;;;;;;15.90;99.90;;;;;;5053176;28;19913;-66
2022/07/09 03:20:35;;;;;;;;;;;15.90;99.90;;;;;;5053462;28;19913;-66
2022/07/09 03:23:01;;;;;;;;;;;16.00;99.90;;;;;;5053430;28;19916;-66
2022/07/09 03:25:27;;;;;;;;;;;16.00;99.90;;;;;;5053407;28;19913;-66
2022/07/09 03:27:52;;;;;;;;;;;16.00;99.90;;;;;;5053393;28;20330;-67
2022/07/09 03:30:18;;;;;;;;;;;16.00;99.90;;;;;;5053054;28;19913;-66
2022/07/09 03:32:44;;;;;;;;;;;16.00;99.90;;;;;;5057183;28;19909;-66
2022/07/09 03:35:09;;;;;;;;;;;16.10;99.90;;;;;;5057205;28;19908;-66
2022/07/09 03:37:35;;;;;;;;;;;16.10;99.90;;;;;;5056905;28;20261;-66
2022/07/09 03:40:02;;;;;;;;;;;16.10;99.90;;;;;;5057128;28;19909;-67
2022/07/09 03:42:27;;;;;;;;;;;16.20;99.90;;;;;;5056821;28;19917;-66
2022/07/09 03:44:53;;;;;;;;;;;16.20;99.90;;;;;;5056742;28;20051;-67
2022/07/09 03:47:18;;;;;;;;;;;16.20;99.90;;;;;;5056998;28;20065;-66
2022/07/09 03:49:44;;;;;;;;;;;16.20;99.90;;;;;;5056520;28;19967;-66
2022/07/09 03:52:09;;;;;;;;;;;16.20;99.90;;;;;;5056655;28;19915;-66
2022/07/09 03:54:35;;;;;;;;;;;16.20;99.90;;;;;;5056572;28;20410;-66
2022/07/09 03:57:00;;;;;;;;;;;16.20;99.90;;;;;;5056547;28;19916;-66
2022/07/09 03:59:26;;;;;;;;;;;16.20;99.90;;;;;;5056538;28;19909;-66
2022/07/09 04:01:51;;;;;;;;;;;16.20;99.90;;;;;;5056403;28;20323;-66
2022/07/09 04:04:16;;;;;;;;;;;16.20;99.90;;;;;;5056435;28;19912;-67
2022/07/09 04:06:42;;;;;;;;;;;16.20;99.90;;;;;;5056370;28;19951;-66
2022/07/09 04:09:07;;;;;;;;;;;16.10;99.90;;;;;;5056548;28;20259;-66
2022/07/09 04:11:33;;;;;;;;;;;16.20;99.90;;;;;;5056597;28;19909;-66
2022/07/09 04:14:00;;;;;;;;;;;16.20;99.90;;;;;;5056531;28;19931;-66
2022/07/09 04:16:25;;;;;;;;;;;16.20;99.90;;;;;;5056472;28;19916;-66
2022/07/09 04:18:51;;;;;;;;;;;16.30;99.90;;;;;;5056131;28;19909;-66
2022/07/09 04:21:16;;;;;;;;;;;16.40;99.90;;;;;;5056394;28;19919;-66
2022/07/09 04:23:42;;;;;;;;;;;16.40;99.90;;;;;;5056327;28;19913;-66
2022/07/09 04:26:08;;;;;;;;;;;16.40;99.90;;;;;;5056045;28;20287;-66
2022/07/09 04:28:35;;;;;;;;;;;16.50;99.90;;;;;;5038183;28;20357;-66
2022/07/09 04:31:01;;;;;;;;;;;16.50;99.90;;;;;;5056195;28;19915;-66
2022/07/09 04:33:26;;;;;;;;;;;16.60;99.90;;;;;;5056172;28;19996;-66
2022/07/09 04:35:52;;;;;;;;;;;16.60;99.90;;;;;;5055858;28;19963;-66
2022/07/09 04:38:17;;;;;;;;;;;16.60;99.90;;;;;;5056059;28;20295;-66
2022/07/09 04:40:43;;;;;;;;;;;16.60;99.90;;;;;;5055807;28;20441;-67
2022/07/09 04:43:08;;;;;;;;;;;16.60;99.90;;;;;;5055308;28;19913;-67
2022/07/09 04:45:34;;;;;;;;;;;16.70;99.90;;;;;;5055652;28;20353;-66
2022/07/09 04:47:59;;;;;;;;;;;17.00;99.90;;;;;;5055729;28;19935;-66
2022/07/09 04:50:25;;;;;;;;;;;17.70;99.90;;;;;;5055338;28;19920;-67
2022/07/09 04:52:51;;;;;;;;;;;18.00;99.90;;;;;;5055519;28;19909;-67
2022/07/09 04:55:16;;;;;;;;;;;17.90;99.90;;;;;;5055495;28;19912;-66
2022/07/09 04:57:42;;;;;;;;;;;17.70;99.90;;;;;;5037628;28;19909;-66
2022/07/09 05:00:09;;;;;;;;;;;17.50;99.90;;;;;;5055517;28;19996;-67
2022/07/09 05:02:34;;;;;;;;;;;17.40;99.90;;;;;;5055597;28;20359;-67
2022/07/09 05:05:00;;;;;;;;;;;17.40;99.90;;;;;;5055271;28;19915;-66
2022/07/09 05:07:25;;;;;;;;;;;17.30;99.90;;;;;;5055210;28;19931;-67
2022/07/09 05:09:51;;;;;;;;;;;17.20;99.90;;;;;;5055063;28;19913;-67
2022/07/09 05:12:16;;;;;;;;;;;17.20;99.90;;;;;;5055336;28;20006;-67
2022/07/09 05:14:42;;;;;;;;;;;17.20;99.90;;;;;;5054993;28;20375;-66
2022/07/09 05:17:07;;;;;;;;;;;17.00;99.90;;;;;;5055253;28;19920;-67
2022/07/09 05:19:32;;;;;;;;;;;17.20;99.90;;;;;;5055010;28;19916;-66
2022/07/09 05:21:58;;;;;;;;;;;17.80;99.90;;;;;;5055189;28;19912;-67
2022/07/09 05:24:23;;;;;;;;;;;18.20;99.90;;;;;;5054946;28;19912;-67
2022/07/09 05:26:49;;;;;;;;;;;18.20;99.90;;;;;;5055090;28;19909;-67
2022/07/09 05:29:14;;;;;;;;;;;18.00;99.90;;;;;;5055010;28;20024;-67
2022/07/09 05:31:40;;;;;;;;;;;17.80;99.90;;;;;;5055022;28;19912;-67
2022/07/09 05:34:07;;;;;;;;;;;17.50;99.90;;;;;;5054973;28;19916;-67
2022/07/09 05:36:33;;;;;;;;;;;17.30;99.90;;;;;;5054801;28;19991;-67
2022/07/09 05:39:00;;;;;;;;;;;17.10;99.90;;;;;;5054553;28;20290;-67
2022/07/09 05:41:25;;;;;;;;;;;17.10;99.90;;;;;;5054783;28;19909;-67
2022/07/09 05:43:52;;;;;;;;;;;17.10;99.90;;;;;;5054502;28;19916;-66
2022/07/09 05:46:17;;;;;;;;;;;17.20;99.90;;;;;;5054594;28;19913;-67
2022/07/09 05:48:43;;;;;;;;;;;17.30;99.90;;;;;;5054367;28;20280;-67
2022/07/09 05:51:08;;;;;;;;;;;17.30;99.90;;;;;;5054625;28;20375;-67
2022/07/09 05:53:34;;;;;;;;;;;17.40;99.90;;;;;;5053928;28;19909;-67
2022/07/09 05:56:00;;;;;;;;;;;17.50;99.90;;;;;;5054309;28;19909;-67
2022/07/09 05:58:25;;;;;;;;;;;17.50;99.90;;;;;;5054263;28;19909;-67
2022/07/09 06:00:51;;;;;;;;;;;17.40;99.90;;;;;;5054223;28;19912;-67
2022/07/09 06:03:17;;;;;;;;;;;17.40;99.90;;;;;;5054436;28;19912;-67
2022/07/09 06:05:43;;;;;;;;;;;17.60;99.90;;;;;;5054469;28;19996;-66
2022/07/09 06:08:09;;;;;;;;;;;17.70;99.90;;;;;;5054365;28;19932;-67
2022/07/09 06:10:34;;;;;;;;;;;18.10;99.90;;;;;;5036605;28;20020;-67
2022/07/09 06:13:00;;;;;;;;;;;18.60;99.90;;;;;;5053979;28;20329;-67
2022/07/09 06:15:25;;;;;;;;;;;18.70;99.90;;;;;;5054235;28;19916;-67
2022/07/09 06:17:51;;;;;;;;;;;18.70;99.90;;;;;;5053923;28;20393;-67
2022/07/09 06:20:16;;;;;;;;;;;18.70;99.90;;;;;;5053908;28;19920;-67
2022/07/09 06:22:42;;;;;;;;;;;18.60;99.90;;;;;;5054069;28;19996;-67
2022/07/09 06:25:08;;;;;;;;;;;18.40;99.90;;;;;;5036097;28;19909;-67
2022/07/09 06:27:34;;;;;;;;;;;18.40;99.90;;;;;;5054042;28;20355;-67
2022/07/09 06:30:00;;;;;;;;;;;18.60;99.90;;;;;;5053690;28;19962;-67
2022/07/09 06:32:25;;;;;;;;;;;18.70;99.90;;;;;;5054036;28;19959;-67
2022/07/09 06:34:51;;;;;;;;;;;18.90;99.90;;;;;;5053702;28;19995;-67
2022/07/09 06:37:16;;;;;;;;;;;18.80;99.90;;;;;;5053932;28;19983;-67
2022/07/09 06:39:45;;;;;;;;;;;18.80;99.90;;;;;;5053626;28;19909;-67
2022/07/09 06:42:11;;;;;;;;;;;18.80;99.90;;;;;;5053820;28;19955;-66
2022/07/09 06:44:37;;;;;;;;;;;18.70;99.90;;;;;;5053818;28;19913;-67
2022/07/09 06:47:03;;;;;;;;;;;18.40;99.90;;;;;;5053500;28;19909;-67
2022/07/09 06:49:29;;;;;;;;;;;18.50;99.90;;;;;;5013631;28;19921;-67
2022/07/09 06:51:55;;;;;;;;;;;18.60;99.90;;;;;;5033853;28;20339;-67
2022/07/09 06:54:20;;;;;;;;;;;18.60;99.90;;;;;;5033535;28;19999;-67
2022/07/09 06:56:46;;;;;;;;;;;18.80;99.90;;;;;;5033513;28;19909;-67
2022/07/09 06:59:12;;;;;;;;;;;19.10;99.90;;;;;;5033812;28;19963;-67
2022/07/09 07:01:38;;;;;;;;;;;19.10;99.90;;;;;;5033747;28;20375;-67
2022/07/09 07:04:03;;;;;;;;;;;18.80;99.90;;;;;;5033520;28;20338;-67
2022/07/09 07:06:29;;;;;;;;;;;19.00;99.90;;;;;;5037062;28;19913;-67
2022/07/09 07:08:54;;;;;;;;;;;19.00;99.90;;;;;;5037713;28;19913;-67
2022/07/09 07:11:20;;;;;;;;;;;19.20;99.90;;;;;;5037721;28;20252;-67
2022/07/09 07:13:45;;;;;;;;;;;19.80;99.90;;;;;;5037760;28;19913;-68
2022/07/09 07:16:11;;;;;;;;;;;21.10;99.90;;;;;;5037397;28;20265;-67
2022/07/09 07:18:36;;;;;;;;;;;21.30;99.90;;;;;;5037622;28;19920;-67
2022/07/09 07:21:02;;;;;;;;;;;21.60;99.90;;;;;;5037544;28;19909;-68
2022/07/09 07:23:31;;;;;;;;;;;21.00;99.90;;;;;;5037514;28;19928;-68
2022/07/09 07:25:57;;;;;;;;;;;20.50;99.90;;;;;;5037236;28;19951;-67
2022/07/09 07:28:23;;;;;;;;;;;21.60;99.90;;;;;;5037091;28;20003;-68
2022/07/09 07:30:48;;;;;;;;;;;22.30;99.90;;;;;;5037209;28;20347;-67
2022/07/09 07:33:14;;;;;;;;;;;22.40;99.90;;;;;;5037342;28;19915;-67
2022/07/09 07:35:39;;;;;;;;;;;21.60;99.90;;;;;;5037067;28;19955;-67
2022/07/09 07:38:05;;;;;;;;;;;20.60;99.90;;;;;;5037046;28;19948;-67
2022/07/09 07:40:30;;;;;;;;;;;21.10;99.90;;;;;;5036931;28;19909;-67
2022/07/09 07:42:56;;;;;;;;;;;21.80;99.90;;;;;;5036847;28;19910;-67
2022/07/09 07:45:21;;;;;;;;;;;22.40;99.90;;;;;;5037127;28;19917;-68
2022/07/09 07:47:46;;;;;;;;;;;22.50;99.90;;;;;;5036855;28;19913;-68
2022/07/09 07:50:12;;;;;;;;;;;22.40;99.90;;;;;;5050690;28;19921;-68
2022/07/09 07:52:37;;;;;;;;;;;23.20;99.90;;;;;;5056660;28;20400;-68
2022/07/09 07:55:03;;;;;;;;;;;24.10;99.90;;;;;;5056912;28;19909;-67
2022/07/09 07:57:29;;;;;;;;;;;24.50;99.90;;;;;;5039090;28;20496;-65
2022/07/09 07:59:54;;;;;;;;;;;24.00;99.90;;;;;;5056783;28;19985;-67
2022/07/09 08:02:19;;;;;;;;;;;22.50;99.90;;;;;;5056517;28;19908;-67
2022/07/09 08:04:45;;;;;;;;;;;21.90;99.90;;;;;;5056428;28;19959;-67
2022/07/09 08:07:10;;;;;;;;;;;21.20;99.90;;;;;;5056670;28;19909;-67
2022/07/09 08:09:36;;;;;;;;;;;21.20;99.90;;;;;;5056300;28;20345;-67
2022/07/09 08:12:01;;;;;;;;;;;21.60;99.90;;;;;;5056280;28;19966;-67
2022/07/09 08:14:27;;;;;;;;;;;22.60;99.90;;;;;;5056532;28;19920;-67
2022/07/09 08:16:52;;;;;;;;;;;23.80;99.90;;;;;;5055436;28;20298;-67
2022/07/09 08:19:18;;;;;;;;;;;24.40;99.90;;;;;;5056430;28;19944;-67
2022/07/09 08:21:43;;;;;;;;;;;24.10;99.90;;;;;;5056122;28;20433;-67
2022/07/09 08:24:09;;;;;;;;;;;24.50;99.90;;;;;;5056066;28;20427;-67
2022/07/09 08:26:34;;;;;;;;;;;24.10;99.90;;;;;;5056320;28;19916;-67
2022/07/09 08:29:00;;;;;;;;;;;23.70;99.90;;;;;;5055907;28;19913;-67
2022/07/09 08:31:26;;;;;;;;;;;22.80;99.90;;;;;;5055851;28;19952;-67
2022/07/09 08:33:51;;;;;;;;;;;22.80;99.90;;;;;;5055849;28;19909;-67
2022/07/09 08:36:17;;;;;;;;;;;22.60;99.90;;;;;;5056104;28;19913;-67
2022/07/09 08:38:43;;;;;;;;;;;23.00;99.90;;;;;;5055887;28;20375;-67
2022/07/09 08:41:08;;;;;;;;;;;22.20;99.90;;;;;;5038011;28;19909;-67
2022/07/09 08:43:35;;;;;;;;;;;22.30;99.90;;;;;;5055732;28;19916;-67
2022/07/09 08:46:01;;;;;;;;;;;22.70;99.90;;;;;;5055655;28;19909;-67
2022/07/09 08:48:27;;;;;;;;;;;23.00;99.90;;;;;;5055467;28;19915;-67
2022/07/09 08:50:52;;;;;;;;;;;23.20;99.90;;;;;;5055424;28;19921;-67
2022/07/09 08:53:18;;;;;;;;;;;23.30;99.90;;;;;;5055540;28;19916;-67
2022/07/09 08:55:45;;;;;;;;;;;23.30;99.90;;;;;;5055718;28;19913;-67
2022/07/09 08:58:11;;;;;;;;;;;23.50;99.90;;;;;;5055416;28;19909;-67
2022/07/09 09:00:37;;;;;;;;;;;23.50;99.90;;;;;;5055413;28;19927;-67
2022/07/09 09:03:02;;;;;;;;;;;23.30;99.90;;;;;;5055649;28;19909;-67
2022/07/09 09:05:28;;;;;;;;;;;24.00;99.90;;;;;;5037527;28;19916;-67
2022/07/09 09:07:53;;;;;;;;;;;25.20;99.90;;;;;;5055495;28;19909;-67
2022/07/09 09:10:21;;;;;;;;;;;24.80;99.90;;;;;;5055097;28;20058;-67
2022/07/09 09:12:47;;;;;;;;;;;25.40;99.90;;;;;;5037395;28;19916;-67
2022/07/09 09:15:16;;;;;;;;;;;24.40;99.90;;;;;;5055309;28;19909;-67
2022/07/09 09:17:44;;;;;;;;;;;23.30;99.90;;;;;;5055231;28;19932;-67
2022/07/09 09:20:11;;;;;;;;;;;22.80;99.90;;;;;;5055213;28;20381;-66
2022/07/09 09:22:43;;;;;;;;;;;23.20;99.90;;;;;;5055235;28;19935;-65
2022/07/09 09:25:14;;;;;;;;;;;23.30;99.90;;;;;;5054919;28;19909;-66
2022/07/09 09:27:40;;;;;;;;;;;23.60;99.90;;;;;;5054517;28;19913;-65
2022/07/09 09:30:09;;;;;;;;;;;24.40;99.90;;;;;;5054434;28;19967;-65
2022/07/09 09:32:34;;;;;;;;;;;24.00;99.90;;;;;;5055050;28;19908;-65
2022/07/09 09:35:02;;;;;;;;;;;23.60;99.90;;;;;;5054652;28;20275;-66
2022/07/09 09:37:28;;;;;;;;;;;23.50;99.90;;;;;;5054869;28;20450;-65
2022/07/09 09:39:54;;;;;;;;;;;23.20;99.90;;;;;;5054876;28;20362;-67
2022/07/09 09:42:21;;;;;;;;;;;23.10;99.90;;;;;;5054636;28;19916;-67
2022/07/09 09:44:49;;;;;;;;;;;23.00;99.90;;;;;;5054618;28;19909;-67
2022/07/09 09:47:16;;;;;;;;;;;22.70;99.90;;;;;;5054661;28;19916;-67
2022/07/09 09:49:42;;;;;;;;;;;22.60;99.90;;;;;;5054330;28;20283;-67
2022/07/09 09:52:08;;;;;;;;;;;22.50;99.90;;;;;;5054640;28;19919;-67
2022/07/09 09:54:35;;;;;;;;;;;22.80;99.90;;;;;;5036489;28;19909;-67
2022/07/09 09:57:04;;;;;;;;;;;22.80;99.90;;;;;;5054304;28;19959;-67
2022/07/09 09:59:30;;;;;;;;;;;22.90;99.90;;;;;;5054546;28;20358;-67
2022/07/09 10:01:55;;;;;;;;;;;22.40;99.90;;;;;;5054175;28;19996;-67
2022/07/09 10:04:21;;;;;;;;;;;22.50;99.90;;;;;;5054208;28;19916;-67
2022/07/09 10:06:47;;;;;;;;;;;22.70;99.90;;;;;;5054416;28;20355;-67
2022/07/09 10:09:13;;;;;;;;;;;22.60;99.90;;;;;;5054029;28;19913;-67
2022/07/09 10:11:43;;;;;;;;;;;22.50;99.90;;;;;;5054033;28;19915;-67
2022/07/09 10:14:14;;;;;;;;;;;22.10;99.90;;;;;;5054304;28;20351;-67
2022/07/09 10:16:40;;;;;;;;;;;22.20;99.90;;;;;;5054065;28;19909;-67
2022/07/09 10:19:06;;;;;;;;;;;22.40;99.90;;;;;;5053890;28;19982;-67
2022/07/09 10:21:34;;;;;;;;;;;22.70;99.90;;;;;;5054137;28;20278;-66
2022/07/09 10:24:00;;;;;;;;;;;22.70;99.90;;;;;;5053859;28;19909;-66
2022/07/09 10:26:46;;;;;;;;;;;22.40;99.90;;;;;;5053812;28;19915;-66
2022/07/09 10:29:18;;;;;;;;;;;22.20;99.90;;;;;;5053685;28;19913;-66
2022/07/09 10:31:43;;;;;;;;;;;22.20;99.90;;;;;;5054005;28;20295;-66
2022/07/09 10:34:14;;;;;;;;;;;22.40;99.90;;;;;;5053989;28;19909;-67
2022/07/09 10:36:39;;;;;;;;;;;22.70;99.90;;;;;;5035917;28;19909;-67
2022/07/09 10:39:11;;;;;;;;;;;23.00;99.90;;;;;;5035760;28;19999;-66
2022/07/09 10:41:37;;;;;;;;;;;23.10;99.90;;;;;;5053472;28;19909;-67
2022/07/09 10:44:02;;;;;;;;;;;23.10;99.90;;;;;;5053839;28;20353;-67
2022/07/09 10:46:28;;;;;;;;;;;22.90;99.90;;;;;;5053758;28;20379;-67
2022/07/09 10:48:58;;;;;;;;;;;22.40;99.90;;;;;;5053421;28;20007;-67
2022/07/09 10:51:26;;;;;;;;;;;22.70;99.90;;;;;;5053037;28;21539;-68
2022/07/09 10:53:52;;;;;;;;;;;23.20;99.90;;;;;;5053395;28;19916;-67
2022/07/09 10:56:18;;;;;;;;;;;23.10;99.90;;;;;;5053578;28;19919;-67
2022/07/09 10:58:45;;;;;;;;;;;23.40;99.90;;;;;;5053660;28;20012;-67
2022/07/09 11:01:18;;;;;;;;;;;23.30;99.90;;;;;;5053399;28;19908;-68
2022/07/09 11:03:48;;;;;;;;;;;23.20;99.90;;;;;;5053454;28;19917;-67
2022/07/09 11:06:13;;;;;;;;;;;23.30;99.90;;;;;;5053392;28;19935;-67
2022/07/09 11:08:38;;;;;;;;;;;23.40;99.90;;;;;;5035311;28;20271;-67
2022/07/09 11:11:04;;;;;;;;;;;23.50;99.90;;;;;;5053207;28;19908;-67
2022/07/09 11:13:29;;;;;;;;;;;23.60;99.90;;;;;;5053284;28;19916;-67
2022/07/09 11:16:00;;;;;;;;;;;24.10;99.90;;;;;;5053254;28;19958;-67
2022/07/09 11:18:26;;;;;;;;;;;24.30;99.90;;;;;;5035954;28;19909;-67
2022/07/09 11:20:52;;;;;;;;;;;24.60;99.90;;;;;;5053092;28;20055;-67
2022/07/09 11:23:17;;;;;;;;;;;24.60;99.90;;;;;;5053200;28;19920;-67
2022/07/09 11:25:43;;;;;;;;;;;25.20;99.90;;;;;;5053173;28;19912;-67
2022/07/09 11:28:18;;;;;;;;;;;24.60;99.90;;;;;;5053396;28;20008;-67
2022/07/09 11:30:43;;;;;;;;;;;24.40;99.90;;;;;;5053336;28;19920;-67
2022/07/09 11:33:12;;;;;;;;;;;24.80;99.90;;;;;;5053119;28;19954;-67
2022/07/09 11:35:37;;;;;;;;;;;24.70;99.90;;;;;;5053156;28;19908;-67
2022/07/09 11:38:04;;;;;;;;;;;24.80;99.90;;;;;;5053017;28;19978;-68
2022/07/09 11:40:29;;;;;;;;;;;24.90;99.90;;;;;;5035197;28;19958;-67
2022/07/09 11:42:55;;;;;;;;;;;24.80;99.90;;;;;;5035313;28;19955;-68
2022/07/09 11:45:24;;;;;;;;;;;24.80;99.90;;;;;;5052961;28;19912;-68
2022/07/09 11:47:50;;;;;;;;;;;24.70;99.90;;;;;;5053187;28;19944;-67
2022/07/09 11:50:20;;;;;;;;;;;24.50;99.90;;;;;;5052645;28;19956;-67
2022/07/09 11:52:46;;;;;;;;;;;24.40;99.90;;;;;;5055270;28;20393;-68
2022/07/09 11:55:14;;;;;;;;;;;24.20;99.90;;;;;;5056747;28;20015;-67
2022/07/09 11:57:50;;;;;;;;;;;23.80;99.90;;;;;;5056857;28;19909;-67
2022/07/09 12:00:23;;;;;;;;;;;23.40;99.90;;;;;;5056573;28;20287;-67
2022/07/09 12:02:49;;;;;;;;;;;23.10;99.90;;;;;;5056725;28;20009;-67
2022/07/09 12:05:23;;;;;;;;;;;22.70;99.90;;;;;;5038495;28;20050;-67
2022/07/09 12:07:53;;;;;;;;;;;22.30;99.90;;;;;;5056655;28;20274;-68
2022/07/09 12:10:24;;;;;;;;;;;22.00;99.90;;;;;;5056293;28;20420;-68
2022/07/09 12:12:50;;;;;;;;;;;21.50;99.90;;;;;;5056321;28;19909;-67
2022/07/09 12:15:17;;;;;;;;;;;21.10;99.90;;;;;;5056470;28;19962;-67
2022/07/09 12:17:42;;;;;;;;;;;20.90;99.90;;;;;;5056458;28;20015;-67
2022/07/09 12:20:09;;;;;;;;;;;20.90;99.90;;;;;;5056476;28;19952;-68
2022/07/09 12:22:34;;;;;;;;;;;21.50;99.90;;;;;;5056367;28;19909;-67
2022/07/09 12:25:00;;;;;;;;;;;21.80;99.90;;;;;;5055992;28;19909;-67
2022/07/09 12:27:25;;;;;;;;;;;22.00;99.90;;;;;;5056053;28;19971;-68
2022/07/09 12:29:51;;;;;;;;;;;22.10;99.90;;;;;;5055876;28;19913;-67
2022/07/09 12:32:16;;;;;;;;;;;22.20;99.90;;;;;;5056220;28;19937;-67
2022/07/09 12:34:42;;;;;;;;;;;22.50;99.90;;;;;;5056104;28;19909;-67
2022/07/09 12:37:07;;;;;;;;;;;22.60;99.90;;;;;;5055731;28;19920;-68
2022/07/09 12:39:33;;;;;;;;;;;22.90;99.90;;;;;;5055824;28;20298;-67
2022/07/09 12:41:58;;;;;;;;;;;23.30;99.90;;;;;;5055738;28;19916;-67
2022/07/09 12:44:24;;;;;;;;;;;23.50;99.90;;;;;;5055688;28;20330;-68
2022/07/09 12:46:51;;;;;;;;;;;23.90;99.90;;;;;;5055654;28;19916;-67
2022/07/09 12:49:16;;;;;;;;;;;24.30;99.90;;;;;;5055437;28;19921;-67
2022/07/09 12:51:42;;;;;;;;;;;24.10;99.90;;;;;;5055794;28;19913;-68
2022/07/09 12:54:07;;;;;;;;;;;23.90;99.90;;;;;;5055522;28;19963;-67
2022/07/09 12:56:33;;;;;;;;;;;24.60;99.90;;;;;;5055466;28;19908;-68
2022/07/09 12:58:58;;;;;;;;;;;24.60;99.90;;;;;;5055709;28;20014;-67
2022/07/09 13:01:24;;;;;;;;;;;24.80;99.90;;;;;;5055443;28;19915;-68
2022/07/09 13:03:49;;;;;;;;;;;24.90;99.90;;;;;;5055129;28;19908;-68
2022/07/09 13:06:46;;;;;;;;;;;24.60;99.90;;;;;;5055312;28;19913;-67
2022/07/09 13:09:01;;;;;;;;;;;24.20;99.90;;;;;;5055030;28;20292;-67
2022/07/09 13:11:27;;;;;;;;;;;24.60;99.90;;;;;;5055476;28;19909;-68
2022/07/09 13:13:53;;;;;;;;;;;24.60;99.90;;;;;;5055416;28;20428;-67
2022/07/09 13:16:18;;;;;;;;;;;24.20;99.90;;;;;;5055178;28;19991;-68
2022/07/09 13:18:44;;;;;;;;;;;24.40;99.90;;;;;;5055174;28;19908;-68
2022/07/09 13:21:09;;;;;;;;;;;24.20;99.90;;;;;;5055036;28;20007;-67
2022/07/09 13:23:35;;;;;;;;;;;24.30;99.90;;;;;;5055051;28;19909;-67
2022/07/09 13:26:00;;;;;;;;;;;24.20;99.90;;;;;;5055216;28;19943;-67
2022/07/09 13:28:26;;;;;;;;;;;24.00;99.90;;;;;;5055191;28;19912;-67
2022/07/09 13:30:51;;;;;;;;;;;24.00;99.90;;;;;;5054731;28;19962;-67
2022/07/09 13:33:17;;;;;;;;;;;23.80;99.90;;;;;;5054844;28;19970;-67
2022/07/09 13:35:42;;;;;;;;;;;23.90;99.90;;;;;;5054787;28;19916;-68
2022/07/09 13:38:08;;;;;;;;;;;23.90;99.90;;;;;;5054731;28;19919;-68
2022/07/09 13:40:34;;;;;;;;;;;24.10;99.90;;;;;;5054931;28;19913;-67
2022/07/09 13:42:59;;;;;;;;;;;24.40;99.90;;;;;;5054668;28;20389;-67
2022/07/09 13:45:27;;;;;;;;;;;24.80;99.90;;;;;;5054585;28;19909;-68
2022/07/09 13:47:52;;;;;;;;;;;25.20;99.90;;;;;;5054491;28;20268;-67
2022/07/09 13:50:18;;;;;;;;;;;25.30;99.90;;;;;;5054221;28;19947;-67
2022/07/09 13:52:43;;;;;;;;;;;25.30;99.90;;;;;;5054468;28;20283;-68
2022/07/09 13:55:09;;;;;;;;;;;24.50;99.90;;;;;;5054338;28;19909;-67
2022/07/09 13:57:34;;;;;;;;;;;24.90;99.90;;;;;;5054609;28;19958;-68
2022/07/09 14:00:00;;;;;;;;;;;25.20;99.90;;;;;;5054242;28;20381;-68
2022/07/09 14:02:25;;;;;;;;;;;24.80;99.90;;;;;;5054508;28;19908;-67
2022/07/09 14:04:51;;;;;;;;;;;24.40;99.90;;;;;;5054313;28;20371;-67
2022/07/09 14:07:16;;;;;;;;;;;24.10;99.90;;;;;;5054203;28;19913;-68
2022/07/09 14:09:42;;;;;;;;;;;23.80;99.90;;;;;;5054306;28;19951;-68